createdAt,value
2019-05-29T00:00:33.101Z,100059.09
2019-05-29T00:01:34.496Z,100065.81
2019-05-29T00:02:35.876Z,100068.50
2019-05-29T00:03:37.371Z,100063.95
2019-05-29T00:04:38.824Z,100059.09
2019-05-29T00:05:40.213Z,100058.23
2019-05-29T00:06:41.701Z,100060.44
2019-05-29T00:07:43.272Z,100056.08
2019-05-29T00:08:44.804Z,100059.42
2019-05-29T00:09:46.250Z,100056.73
2019-05-29T00:10:47.622Z,100061.58
2019-05-29T00:11:49.354Z,100061.58
2019-05-29T00:12:50.733Z,100062.43
2019-05-29T00:13:53.937Z,100072.16
2019-05-29T00:14:55.525Z,100079.38
2019-05-29T00:15:56.920Z,100084.27
2019-05-29T00:16:58.301Z,100089.65
2019-05-29T00:17:59.730Z,100097.84
2019-05-29T00:19:01.090Z,100083.58
2019-05-29T00:20:04.525Z,100089.77
2019-05-29T00:21:06.346Z,100076.52
2019-05-29T00:22:08.225Z,100072.81
2019-05-29T00:23:10.506Z,100069.80
2019-05-29T00:24:12.502Z,100074.66
2019-05-29T00:25:14.758Z,100086.27
2019-05-29T00:26:16.615Z,100085.09
2019-05-29T00:27:18.044Z,100082.92
2019-05-29T00:28:19.440Z,100077.55
2019-05-29T00:29:20.817Z,100064.91
2019-05-29T00:30:22.377Z,100053.02
2019-05-29T00:31:23.873Z,100035.38
2019-05-29T00:32:25.253Z,100031.83
2019-05-29T00:33:26.645Z,100030.16
2019-05-29T00:34:28.029Z,100022.26
2019-05-29T00:35:29.442Z,100022.78
2019-05-29T00:36:30.933Z,100016.06
2019-05-29T00:37:32.223Z,100021.12
2019-05-29T00:38:33.718Z,100030.00
2019-05-29T00:39:35.196Z,100030.53
2019-05-29T00:40:38.420Z,100029.88
2019-05-29T00:41:39.808Z,100036.61
2019-05-29T00:42:41.465Z,100034.41
2019-05-29T00:43:43.948Z,100034.94
2019-05-29T00:44:45.349Z,100030.91
2019-05-29T00:45:46.761Z,100027.57
2019-05-29T00:46:48.154Z,100030.11
2019-05-29T00:47:49.542Z,100028.27
2019-05-29T00:48:50.925Z,100026.08
2019-05-29T00:49:52.412Z,100020.20
2019-05-29T00:50:53.851Z,100019.87
2019-05-29T00:51:55.226Z,100019.34
2019-05-29T00:52:56.777Z,100010.14
2019-05-29T00:53:58.189Z,100015.84
2019-05-29T00:55:00.615Z,100015.16
2019-05-29T00:56:03.235Z,100021.06
2019-05-29T00:57:04.612Z,100019.20
2019-05-29T00:58:06.014Z,100024.08
2019-05-29T00:59:07.395Z,100024.58
2019-05-29T01:00:09.780Z,100019.20
2019-05-29T01:01:11.906Z,100019.87
2019-05-29T01:02:13.717Z,100017.19
2019-05-29T01:03:15.904Z,100014.99
2019-05-29T01:04:17.878Z,100012.83
2019-05-29T01:05:20.174Z,100016.86
2019-05-29T01:06:21.742Z,100012.83
2019-05-29T01:07:23.245Z,100010.95
2019-05-29T01:08:24.628Z,100010.14
2019-05-29T01:09:26.017Z,100018.00
2019-05-29T01:10:27.401Z,100009.94
2019-05-29T01:11:28.803Z,100011.28
2019-05-29T01:12:30.276Z,100011.11
2019-05-29T01:13:32.285Z,100011.61
2019-05-29T01:14:47.237Z,100012.45
2019-05-29T01:15:37.092Z,100018.16
2019-05-29T01:16:39.649Z,100012.58
2019-05-29T01:17:41.036Z,100015.27
2019-05-29T01:18:42.424Z,100010.41
2019-05-29T01:19:43.817Z,100006.55
2019-05-29T01:20:45.204Z,100014.45
2019-05-29T01:21:46.751Z,100013.92
2019-05-29T01:22:48.242Z,100017.14
2019-05-29T01:23:49.631Z,100011.76
2019-05-29T01:24:51.125Z,100013.10
2019-05-29T01:25:52.518Z,100007.40
2019-05-29T01:26:54.057Z,100008.05
2019-05-29T01:27:55.508Z,99999.98
2019-05-29T01:28:56.948Z,100005.03
2019-05-29T01:29:58.329Z,100003.69
2019-05-29T01:30:59.721Z,99997.98
2019-05-29T01:32:01.374Z,100000.68
2019-05-29T01:33:03.051Z,99999.83
2019-05-29T01:34:04.432Z,100001.70
2019-05-29T01:35:06.112Z,99995.15
2019-05-29T01:36:07.497Z,99997.34
2019-05-29T01:37:09.116Z,99997.84
2019-05-29T01:38:10.493Z,100003.74
2019-05-29T01:39:11.873Z,100007.45
2019-05-29T01:40:20.966Z,99997.69
2019-05-29T01:41:17.119Z,100003.06
2019-05-29T01:42:19.447Z,100008.12
2019-05-29T01:43:21.475Z,100012.15
2019-05-29T01:44:23.685Z,100008.64
2019-05-29T01:45:25.674Z,100010.31
2019-05-29T01:46:27.812Z,100007.09
2019-05-29T01:47:29.534Z,100004.41
2019-05-29T01:48:30.929Z,99997.36
2019-05-29T01:49:32.317Z,99999.03
2019-05-29T01:50:33.814Z,99996.55
2019-05-29T01:51:35.201Z,100000.73
2019-05-29T01:52:36.633Z,99998.05
2019-05-29T01:53:38.042Z,99995.84
2019-05-29T01:54:39.448Z,99995.84
2019-05-29T01:55:40.822Z,100002.08
2019-05-29T01:56:42.223Z,99996.70
2019-05-29T01:57:43.632Z,99996.49
2019-05-29T01:58:45.020Z,99997.02
2019-05-29T01:59:46.412Z,99985.73
2019-05-29T02:00:47.801Z,99992.29
2019-05-29T02:01:49.231Z,99989.28
2019-05-29T02:02:50.960Z,99989.92
2019-05-29T02:03:52.340Z,99991.44
2019-05-29T02:04:53.727Z,99993.11
2019-05-29T02:05:55.114Z,99991.27
2019-05-29T02:06:56.488Z,99989.07
2019-05-29T02:07:57.908Z,99994.98
2019-05-29T02:08:59.302Z,99995.95
2019-05-29T02:10:00.692Z,99988.58
2019-05-29T02:11:02.078Z,99996.97
2019-05-29T02:12:03.761Z,99997.30
2019-05-29T02:13:05.350Z,99994.60
2019-05-29T02:14:06.729Z,99997.30
2019-05-29T02:15:22.993Z,99993.75
2019-05-29T02:16:11.979Z,99995.95
2019-05-29T02:17:13.484Z,99997.30
2019-05-29T02:18:15.115Z,100004.02
2019-05-29T02:19:17.693Z,99994.66
2019-05-29T02:20:19.392Z,100000.68
2019-05-29T02:21:21.926Z,99999.66
2019-05-29T02:22:23.677Z,100002.02
2019-05-29T02:23:25.104Z,100002.34
2019-05-29T02:24:27.455Z,99995.80
2019-05-29T02:25:28.927Z,99995.80
2019-05-29T02:26:30.328Z,99998.69
2019-05-29T02:27:31.751Z,99995.47
2019-05-29T02:28:33.443Z,99994.66
2019-05-29T02:29:34.866Z,99992.45
2019-05-29T02:30:36.277Z,99995.67
2019-05-29T02:31:37.683Z,99991.64
2019-05-29T02:32:39.084Z,99991.81
2019-05-29T02:33:40.598Z,99995.84
2019-05-29T02:34:42.003Z,99995.00
2019-05-29T02:35:43.411Z,99994.67
2019-05-29T02:36:45.831Z,99998.70
2019-05-29T02:37:47.226Z,100000.37
2019-05-29T02:38:48.641Z,99995.70
2019-05-29T02:39:50.163Z,100001.39
2019-05-29T02:40:51.576Z,100000.25
2019-05-29T02:41:53.007Z,99998.91
2019-05-29T02:42:54.514Z,99998.06
2019-05-29T02:43:56.073Z,99997.73
2019-05-29T02:44:57.672Z,99997.24
2019-05-29T02:45:59.102Z,99995.05
2019-05-29T02:47:00.503Z,99998.91
2019-05-29T02:48:02.063Z,99995.90
2019-05-29T02:49:04.112Z,99992.68
2019-05-29T02:50:06.762Z,99998.06
2019-05-29T02:51:12.064Z,99998.38
2019-05-29T02:52:11.699Z,99997.36
2019-05-29T02:53:13.112Z,99999.88
2019-05-29T02:54:14.586Z,99992.83
2019-05-29T02:55:16.112Z,99996.02
2019-05-29T02:56:17.747Z,99990.64
2019-05-29T02:57:20.617Z,99995.35
2019-05-29T02:58:24.021Z,99995.67
2019-05-29T02:59:27.413Z,99994.66
2019-05-29T03:00:52.290Z,99996.81
2019-05-29T03:01:53.715Z,100000.84
2019-05-29T03:02:55.218Z,99999.13
2019-05-29T03:03:57.482Z,100000.68
2019-05-29T03:04:58.895Z,99998.36
2019-05-29T03:06:01.525Z,99992.14
2019-05-29T03:07:03.074Z,99997.02
2019-05-29T03:08:04.504Z,99994.01
2019-05-29T03:09:05.936Z,99987.28
2019-05-29T03:10:08.969Z,99992.83
2019-05-29T03:11:10.378Z,99992.66
2019-05-29T03:12:11.808Z,99985.09
2019-05-29T03:13:15.116Z,99986.44
2019-05-29T03:14:16.537Z,99985.94
2019-05-29T03:15:18.097Z,99989.45
2019-05-29T03:16:19.512Z,99990.62
2019-05-29T03:17:20.927Z,99987.93
2019-05-29T03:18:23.966Z,99989.92
2019-05-29T03:19:26.001Z,99993.95
2019-05-29T03:20:28.244Z,99994.28
2019-05-29T03:21:30.747Z,99994.28
2019-05-29T03:22:33.795Z,99995.63
2019-05-29T03:23:36.661Z,99989.92
2019-05-29T03:24:39.163Z,100003.16
2019-05-29T03:25:40.578Z,99997.98
2019-05-29T03:26:41.991Z,99997.14
2019-05-29T03:27:43.410Z,99995.30
2019-05-29T03:28:44.846Z,99995.30
2019-05-29T03:29:46.244Z,99999.01
2019-05-29T03:30:47.799Z,99996.32
2019-05-29T03:31:49.212Z,99997.98
2019-05-29T03:32:50.587Z,99995.30
2019-05-29T03:33:51.985Z,100000.68
2019-05-29T03:34:53.439Z,99995.80
2019-05-29T03:35:54.866Z,99993.63
2019-05-29T03:36:56.278Z,99993.63
2019-05-29T03:37:58.950Z,99996.64
2019-05-29T03:39:01.983Z,99994.28
2019-05-29T03:40:05.390Z,99995.09
2019-05-29T03:41:06.793Z,99991.27
2019-05-29T03:42:08.174Z,99995.95
2019-05-29T03:43:09.573Z,99995.63
2019-05-29T03:44:10.963Z,99989.92
2019-05-29T03:45:12.446Z,99997.98
2019-05-29T03:46:30.309Z,100002.34
2019-05-29T03:47:17.151Z,100000.47
2019-05-29T03:48:18.556Z,99997.30
2019-05-29T03:49:20.078Z,99999.45
2019-05-29T03:50:21.609Z,100003.31
2019-05-29T03:51:23.188Z,99996.59
2019-05-29T03:52:26.152Z,100001.77
2019-05-29T03:53:29.222Z,100001.27
2019-05-29T03:54:32.564Z,99999.41
2019-05-29T03:55:35.780Z,99999.92
2019-05-29T03:56:38.780Z,100001.06
2019-05-29T03:57:40.381Z,100000.25
2019-05-29T03:58:41.829Z,100001.59
2019-05-29T03:59:43.217Z,99996.22
2019-05-29T04:00:46.339Z,99995.89
2019-05-29T04:01:48.129Z,99992.18
2019-05-29T04:02:49.505Z,99995.19
2019-05-29T04:03:50.905Z,99993.32
2019-05-29T04:04:52.289Z,99991.16
2019-05-29T04:05:53.850Z,99988.47
2019-05-29T04:06:55.425Z,99992.83
2019-05-29T04:07:56.835Z,99989.81
2019-05-29T04:08:58.259Z,99992.83
2019-05-29T04:09:59.680Z,99987.13
2019-05-29T04:11:01.106Z,99982.77
2019-05-29T04:12:02.528Z,99988.97
2019-05-29T04:13:04.005Z,99983.27
2019-05-29T04:14:05.507Z,99989.17
2019-05-29T04:15:07.597Z,99983.79
2019-05-29T04:16:09.390Z,99990.19
2019-05-29T04:17:12.430Z,99984.98
2019-05-29T04:18:19.557Z,99989.34
2019-05-29T04:19:20.967Z,99989.88
2019-05-29T04:20:23.378Z,99988.52
2019-05-29T04:21:24.901Z,99983.84
2019-05-29T04:22:30.849Z,99986.53
2019-05-29T04:23:34.667Z,99983.84
2019-05-29T04:24:40.065Z,99984.87
2019-05-29T04:25:43.728Z,99983.20
2019-05-29T04:26:45.328Z,99985.89
2019-05-29T04:27:51.484Z,99990.62
2019-05-29T04:28:53.098Z,99986.27
2019-05-29T04:29:56.715Z,99980.88
2019-05-29T04:30:58.123Z,99981.38
2019-05-29T04:31:59.643Z,99982.73
2019-05-29T04:33:01.251Z,99980.20
2019-05-29T04:34:02.730Z,99986.11
2019-05-29T04:35:04.319Z,99986.61
2019-05-29T04:36:05.777Z,99987.45
2019-05-29T04:37:07.543Z,99987.95
2019-05-29T04:38:09.070Z,99985.59
2019-05-29T04:39:10.510Z,99989.62
2019-05-29T04:40:11.939Z,99991.98
2019-05-29T04:41:13.351Z,99992.31
2019-05-29T04:42:14.835Z,99996.87
2019-05-29T04:43:16.313Z,99989.62
2019-05-29T04:44:17.687Z,99994.33
2019-05-29T04:45:19.093Z,99994.01
2019-05-29T04:46:20.465Z,99994.83
2019-05-29T04:47:21.859Z,99996.49
2019-05-29T04:48:23.374Z,99993.31
2019-05-29T04:49:24.795Z,99987.93
2019-05-29T04:50:26.304Z,99983.38
2019-05-29T04:51:29.116Z,99985.03
2019-05-29T04:52:31.380Z,99983.20
2019-05-29T04:53:33.724Z,99986.53
2019-05-29T04:54:37.405Z,99984.16
2019-05-29T04:55:39.046Z,99976.92
2019-05-29T04:56:40.474Z,99978.09
2019-05-29T04:57:41.982Z,99972.71
2019-05-29T04:58:43.366Z,99974.88
2019-05-29T04:59:44.875Z,99973.03
2019-05-29T05:00:58.528Z,99968.30
2019-05-29T05:01:49.716Z,99969.12
2019-05-29T05:02:51.129Z,99967.28
2019-05-29T05:03:52.665Z,99972.45
2019-05-29T05:04:54.057Z,99968.63
2019-05-29T05:05:55.447Z,99974.12
2019-05-29T05:06:56.909Z,99969.91
2019-05-29T05:07:58.287Z,99972.72
2019-05-29T05:08:59.972Z,99971.52
2019-05-29T05:10:01.469Z,99969.16
2019-05-29T05:11:03.067Z,99975.82
2019-05-29T05:12:04.448Z,99972.95
2019-05-29T05:13:05.943Z,99971.73
2019-05-29T05:14:07.468Z,99970.03
2019-05-29T05:15:09.141Z,99969.66
2019-05-29T05:16:10.652Z,99971.47
2019-05-29T05:17:25.293Z,99966.55
2019-05-29T05:18:15.321Z,99968.86
2019-05-29T05:19:17.103Z,99972.52
2019-05-29T05:20:18.708Z,99971.61
2019-05-29T05:21:20.192Z,99978.80
2019-05-29T05:22:21.577Z,99977.39
2019-05-29T05:23:22.966Z,99978.35
2019-05-29T05:24:24.392Z,99980.98
2019-05-29T05:25:25.878Z,99976.88
2019-05-29T05:26:27.376Z,99979.01
2019-05-29T05:27:30.061Z,99972.21
2019-05-29T05:28:32.160Z,99979.91
2019-05-29T05:29:34.164Z,99973.95
2019-05-29T05:30:36.480Z,99978.95
2019-05-29T05:31:38.568Z,99981.05
2019-05-29T05:32:41.166Z,99979.13
2019-05-29T05:33:42.975Z,99977.19
2019-05-29T05:34:44.613Z,99980.66
2019-05-29T05:35:45.992Z,99979.80
2019-05-29T05:36:47.388Z,99976.19
2019-05-29T05:37:48.932Z,99973.42
2019-05-29T05:38:50.324Z,99973.88
2019-05-29T05:39:51.825Z,99974.84
2019-05-29T05:40:53.176Z,99964.20
2019-05-29T05:41:54.574Z,99968.34
2019-05-29T05:42:55.856Z,99969.12
2019-05-29T05:43:57.261Z,99967.69
2019-05-29T05:44:58.683Z,99971.66
2019-05-29T05:46:00.093Z,99966.59
2019-05-29T05:47:01.504Z,99964.84
2019-05-29T05:48:03.023Z,99964.45
2019-05-29T05:49:04.435Z,99968.63
2019-05-29T05:50:07.165Z,99964.19
2019-05-29T05:51:08.537Z,99962.31
2019-05-29T05:52:09.943Z,99961.91
2019-05-29T05:53:11.334Z,99959.84
2019-05-29T05:54:12.736Z,99960.70
2019-05-29T05:55:14.346Z,99958.42
2019-05-29T05:56:16.272Z,99956.04
2019-05-29T05:57:17.686Z,99962.06
2019-05-29T05:58:19.208Z,99958.02
2019-05-29T05:59:20.613Z,99957.34
2019-05-29T06:00:29.838Z,99961.17
2019-05-29T06:01:31.725Z,99960.13
2019-05-29T06:02:33.806Z,99961.30
2019-05-29T06:03:35.986Z,99962.64
2019-05-29T06:04:37.933Z,99958.92
2019-05-29T06:05:40.245Z,99954.87
2019-05-29T06:06:42.330Z,99949.48
2019-05-29T06:07:44.007Z,99948.45
2019-05-29T06:08:45.479Z,99952.50
2019-05-29T06:09:46.853Z,99947.10
2019-05-29T06:10:51.324Z,99948.13
2019-05-29T06:11:52.752Z,99946.57
2019-05-29T06:12:54.157Z,99944.72
2019-05-29T06:13:55.635Z,99943.38
2019-05-29T06:14:57.145Z,99939.01
2019-05-29T06:15:58.734Z,99938.30
2019-05-29T06:17:00.130Z,99938.80
2019-05-29T06:18:20.013Z,99949.90
2019-05-29T06:19:04.815Z,99950.43
2019-05-29T06:20:06.603Z,99951.78
2019-05-29T06:21:08.176Z,99955.82
2019-05-29T06:22:09.550Z,99954.47
2019-05-29T06:23:11.350Z,99956.32
2019-05-29T06:24:12.727Z,99958.84
2019-05-29T06:25:14.233Z,99953.13
2019-05-29T06:26:15.610Z,99954.47
2019-05-29T06:27:16.997Z,99954.97
2019-05-29T06:28:18.386Z,99957.17
2019-05-29T06:29:19.895Z,99954.47
2019-05-29T06:30:21.601Z,99957.98
2019-05-29T06:31:23.112Z,99956.64
2019-05-29T06:32:24.489Z,99949.27
2019-05-29T06:33:25.992Z,99952.91
2019-05-29T06:34:27.399Z,99954.79
2019-05-29T06:35:28.779Z,99957.98
2019-05-29T06:36:30.315Z,99956.45
2019-05-29T06:37:31.803Z,99956.95
2019-05-29T06:38:33.576Z,99957.98
2019-05-29T06:39:35.542Z,99954.79
2019-05-29T06:40:40.300Z,99961.53
2019-05-29T06:41:42.074Z,99954.47
2019-05-29T06:42:43.942Z,99959.16
2019-05-29T06:43:45.635Z,99959.02
2019-05-29T06:44:49.023Z,99964.73
2019-05-29T06:45:50.578Z,99963.37
2019-05-29T06:46:51.999Z,99963.91
2019-05-29T06:47:53.378Z,99965.26
2019-05-29T06:49:00.457Z,99966.29
2019-05-29T06:49:58.068Z,99964.95
2019-05-29T06:50:59.469Z,99970.34
2019-05-29T06:52:00.892Z,99961.61
2019-05-29T06:53:02.462Z,99968.36
2019-05-29T06:54:04.552Z,99964.31
2019-05-29T06:55:05.957Z,99962.64
2019-05-29T06:56:07.497Z,99961.30
2019-05-29T06:57:08.973Z,99958.07
2019-05-29T06:58:10.362Z,99956.72
2019-05-29T06:59:11.752Z,99956.22
2019-05-29T07:00:13.173Z,99957.57
2019-05-29T07:01:14.652Z,99964.31
2019-05-29T07:02:16.157Z,99958.07
2019-05-29T07:03:17.593Z,99958.92
2019-05-29T07:04:19.090Z,99956.72
2019-05-29T07:05:20.501Z,99958.92
2019-05-29T07:06:21.920Z,99953.53
2019-05-29T07:07:23.567Z,99955.19
2019-05-29T07:08:38.387Z,99957.89
2019-05-29T07:09:28.336Z,99954.87
2019-05-29T07:10:29.816Z,99963.28
2019-05-29T07:11:31.195Z,99960.58
2019-05-29T07:12:32.617Z,99965.13
2019-05-29T07:13:35.475Z,99954.66
2019-05-29T07:14:38.185Z,99945.63
2019-05-29T07:15:40.759Z,99950.61
2019-05-29T07:16:49.940Z,99952.28
2019-05-29T07:17:46.669Z,99952.50
2019-05-29T07:19:22.970Z,99941.70
2019-05-29T07:20:02.758Z,99944.91
2019-05-29T07:20:55.046Z,99948.45
2019-05-29T07:21:56.457Z,99947.28
2019-05-29T07:22:57.883Z,99945.94
2019-05-29T07:23:59.271Z,99952.17
2019-05-29T07:25:00.661Z,99945.13
2019-05-29T07:26:02.160Z,99945.63
2019-05-29T07:27:03.549Z,99943.45
2019-05-29T07:28:06.089Z,99939.91
2019-05-29T07:29:08.695Z,99936.72
2019-05-29T07:30:11.769Z,99939.91
2019-05-29T07:31:13.145Z,99937.53
2019-05-29T07:32:14.720Z,99935.36
2019-05-29T07:33:16.198Z,99928.81
2019-05-29T07:34:20.515Z,99935.05
2019-05-29T07:35:22.902Z,99933.17
2019-05-29T07:36:24.298Z,99927.78
2019-05-29T07:37:25.683Z,99934.83
2019-05-29T07:38:27.114Z,99932.67
2019-05-29T07:39:28.494Z,99934.02
2019-05-29T07:40:29.898Z,99932.36
2019-05-29T07:41:31.359Z,99935.05
2019-05-29T07:42:32.749Z,99932.36
2019-05-29T07:43:34.164Z,99938.06
2019-05-29T07:44:37.905Z,99939.91
2019-05-29T07:45:40.625Z,99935.05
2019-05-29T07:46:42.457Z,99937.75
2019-05-29T07:47:44.728Z,99938.78
2019-05-29T07:48:48.513Z,99938.96
2019-05-29T07:49:50.327Z,99949.56
2019-05-29T07:51:06.309Z,99946.23
2019-05-29T07:51:55.176Z,99947.37
2019-05-29T07:52:56.596Z,99942.51
2019-05-29T07:53:58.010Z,99939.81
2019-05-29T07:54:59.430Z,99950.28
2019-05-29T07:56:00.841Z,99938.96
2019-05-29T07:57:02.259Z,99947.90
2019-05-29T07:58:03.670Z,99944.36
2019-05-29T07:59:05.109Z,99946.23
2019-05-29T08:00:07.719Z,99941.16
2019-05-29T08:01:13.606Z,99941.98
2019-05-29T08:02:12.776Z,99941.98
2019-05-29T08:03:14.188Z,99939.81
2019-05-29T08:04:15.790Z,99942.69
2019-05-29T08:05:17.261Z,99950.96
2019-05-29T08:06:18.659Z,99948.27
2019-05-29T08:07:20.161Z,99956.36
2019-05-29T08:08:21.673Z,99959.91
2019-05-29T08:09:23.192Z,99950.64
2019-05-29T08:10:24.915Z,99957.39
2019-05-29T08:11:26.292Z,99955.72
2019-05-29T08:12:27.751Z,99959.58
2019-05-29T08:13:29.121Z,99964.13
2019-05-29T08:14:30.658Z,99959.58
2019-05-29T08:15:32.145Z,99986.55
2019-05-29T08:16:33.547Z,99994.09
2019-05-29T08:17:34.916Z,100004.39
2019-05-29T08:18:36.318Z,99995.77
2019-05-29T08:19:37.729Z,100003.03
2019-05-29T08:20:39.810Z,99996.30
2019-05-29T08:21:42.566Z,99999.81
2019-05-29T08:22:44.508Z,100003.03
2019-05-29T08:23:46.395Z,100006.23
2019-05-29T08:24:49.359Z,100010.28
2019-05-29T08:25:52.216Z,100012.48
2019-05-29T08:26:53.626Z,100012.97
2019-05-29T08:27:54.996Z,100011.31
2019-05-29T08:28:56.403Z,100012.66
2019-05-29T08:29:57.790Z,100015.88
2019-05-29T08:30:59.181Z,100020.74
2019-05-29T08:32:00.571Z,100025.00
2019-05-29T08:33:01.969Z,100015.03
2019-05-29T08:34:03.349Z,100017.73
2019-05-29T08:35:05.282Z,100017.09
2019-05-29T08:36:06.947Z,100018.76
2019-05-29T08:37:08.472Z,100023.97
2019-05-29T08:38:10.954Z,100023.13
2019-05-29T08:39:12.363Z,100017.95
2019-05-29T08:40:14.280Z,100020.95
2019-05-29T08:41:15.691Z,100010.89
2019-05-29T08:42:23.198Z,100014.22
2019-05-29T08:43:20.517Z,100019.30
2019-05-29T08:44:21.992Z,100016.91
2019-05-29T08:45:23.392Z,100019.08
2019-05-29T08:46:24.768Z,100018.76
2019-05-29T08:47:26.260Z,100020.11
2019-05-29T08:48:27.633Z,100010.89
2019-05-29T08:49:29.038Z,100012.23
2019-05-29T08:50:30.455Z,100013.77
2019-05-29T08:51:31.957Z,100010.75
2019-05-29T08:52:33.650Z,100016.14
2019-05-29T08:53:35.047Z,100020.50
2019-05-29T08:54:36.432Z,100021.22
2019-05-29T08:55:37.984Z,100026.61
2019-05-29T08:56:39.353Z,100022.95
2019-05-29T08:57:42.438Z,100032.53
2019-05-29T08:58:44.376Z,100027.64
2019-05-29T08:59:46.413Z,100027.95
2019-05-29T09:00:51.903Z,100035.23
2019-05-29T09:01:53.780Z,100039.27
2019-05-29T09:02:55.041Z,100038.42
2019-05-29T09:03:56.437Z,100048.39
2019-05-29T09:04:57.828Z,100038.63
2019-05-29T09:06:08.618Z,100046.51
2019-05-29T09:07:02.912Z,100050.77
2019-05-29T09:08:04.346Z,100058.32
2019-05-29T09:09:06.458Z,100060.20
2019-05-29T09:10:08.765Z,100058.85
2019-05-29T09:11:10.350Z,100074.50
2019-05-29T09:12:11.743Z,100066.63
2019-05-29T09:13:13.216Z,100060.70
2019-05-29T09:14:14.672Z,100074.50
2019-05-29T09:15:21.046Z,100080.53
2019-05-29T09:16:19.569Z,100079.49
2019-05-29T09:17:22.157Z,100081.16
2019-05-29T09:18:25.454Z,100079.81
2019-05-29T09:19:26.969Z,100083.86
2019-05-29T09:20:50.212Z,100085.20
2019-05-29T09:21:31.813Z,100089.56
2019-05-29T09:22:33.192Z,100090.10
2019-05-29T09:23:34.757Z,100085.52
2019-05-29T09:24:36.141Z,100096.84
2019-05-29T09:25:37.544Z,100095.81
2019-05-29T09:26:39.045Z,100101.70
2019-05-29T09:27:40.429Z,100099.00
2019-05-29T09:28:41.825Z,100098.50
2019-05-29T09:29:43.223Z,100105.25
2019-05-29T09:30:44.610Z,100107.95
2019-05-29T09:31:46.261Z,100115.18
2019-05-29T09:32:50.972Z,100106.91
2019-05-29T09:33:51.162Z,100112.80
2019-05-29T09:34:52.663Z,100111.45
2019-05-29T09:35:54.063Z,100115.32
2019-05-29T09:36:56.074Z,100112.80
2019-05-29T09:37:57.507Z,100097.66
2019-05-29T09:38:58.896Z,100116.03
2019-05-29T09:40:00.563Z,100119.36
2019-05-29T09:41:01.976Z,100109.08
2019-05-29T09:42:03.502Z,100123.41
2019-05-29T09:43:05.085Z,100117.70
2019-05-29T09:44:06.473Z,100113.12
2019-05-29T09:45:07.917Z,100125.08
2019-05-29T09:46:09.317Z,100117.80
2019-05-29T09:47:11.009Z,100122.70
2019-05-29T09:48:12.431Z,100125.72
2019-05-29T09:49:13.905Z,100125.72
2019-05-29T09:50:17.459Z,100122.17
2019-05-29T09:51:21.611Z,100126.53
2019-05-29T09:52:22.702Z,100135.97
2019-05-29T09:53:24.586Z,100127.38
2019-05-29T09:54:26.191Z,100130.58
2019-05-29T09:55:27.659Z,100134.63
2019-05-29T09:56:29.120Z,100142.21
2019-05-29T09:57:30.538Z,100150.30
2019-05-29T09:58:31.952Z,100142.71
2019-05-29T09:59:33.370Z,100151.33
2019-05-29T10:00:34.778Z,100151.33
2019-05-29T10:01:36.216Z,100151.33
2019-05-29T10:02:37.608Z,100161.58
2019-05-29T10:03:38.999Z,100161.58
2019-05-29T10:04:40.498Z,100170.02
2019-05-29T10:05:42.079Z,100166.48
2019-05-29T10:06:43.481Z,100165.63
2019-05-29T10:07:45.001Z,100174.06
2019-05-29T10:08:46.412Z,100171.88
2019-05-29T10:09:47.832Z,100174.75
2019-05-29T10:10:49.563Z,100176.41
2019-05-29T10:11:51.037Z,100177.44
2019-05-29T10:12:53.496Z,100170.70
2019-05-29T10:13:56.982Z,100174.25
2019-05-29T10:15:00.922Z,100177.44
2019-05-29T10:16:04.696Z,100176.63
2019-05-29T10:17:11.300Z,100179.50
2019-05-29T10:18:30.082Z,100186.95
2019-05-29T10:19:12.959Z,100176.37
2019-05-29T10:20:15.488Z,100179.56
2019-05-29T10:21:16.874Z,100188.36
2019-05-29T10:22:18.267Z,100184.31
2019-05-29T10:23:20.272Z,100174.56
2019-05-29T10:24:21.655Z,100191.44
2019-05-29T10:25:23.148Z,100190.41
2019-05-29T10:26:24.639Z,100203.25
2019-05-29T10:27:26.119Z,100188.75
2019-05-29T10:28:27.698Z,100205.95
2019-05-29T10:29:29.081Z,100215.38
2019-05-29T10:30:30.476Z,100206.80
2019-05-29T10:31:31.985Z,100205.77
2019-05-29T10:32:33.418Z,100213.16
2019-05-29T10:33:35.021Z,100191.05
2019-05-29T10:34:36.422Z,100208.41
2019-05-29T10:35:37.828Z,100213.27
2019-05-29T10:36:39.213Z,100215.14
2019-05-29T10:37:40.620Z,100221.88
2019-05-29T10:38:42.417Z,100238.06
2019-05-29T10:39:44.659Z,100234.02
2019-05-29T10:40:56.692Z,100228.09
2019-05-29T10:41:50.870Z,100246.14
2019-05-29T10:42:53.580Z,100249.66
2019-05-29T10:43:55.245Z,100250.83
2019-05-29T10:44:56.627Z,100241.58
2019-05-29T10:45:58.017Z,100241.08
2019-05-29T10:46:59.502Z,100245.62
2019-05-29T10:48:00.881Z,100250.69
2019-05-29T10:49:04.839Z,100248.31
2019-05-29T10:50:08.302Z,100261.80
2019-05-29T10:51:09.672Z,100253.06
2019-05-29T10:52:16.613Z,100262.17
2019-05-29T10:53:14.410Z,100255.44
2019-05-29T10:54:15.812Z,100253.27
2019-05-29T10:55:20.800Z,100270.97
2019-05-29T10:56:22.212Z,100271.81
2019-05-29T10:57:23.585Z,100288.00
2019-05-29T10:58:24.982Z,100283.09
2019-05-29T10:59:26.377Z,100286.00
2019-05-29T11:00:27.889Z,100275.72
2019-05-29T11:01:29.500Z,100269.50
2019-05-29T11:02:30.916Z,100274.05
2019-05-29T11:03:32.324Z,100293.23
2019-05-29T11:04:33.740Z,100279.76
2019-05-29T11:05:35.130Z,100295.94
2019-05-29T11:06:40.402Z,100290.55
2019-05-29T11:07:40.021Z,100286.00
2019-05-29T11:08:41.421Z,100299.48
2019-05-29T11:09:44.885Z,100286.33
2019-05-29T11:10:46.249Z,100304.87
2019-05-29T11:11:48.458Z,100298.45
2019-05-29T11:12:50.800Z,100311.08
2019-05-29T11:13:52.857Z,100304.02
2019-05-29T11:14:55.044Z,100307.74
2019-05-29T11:15:56.925Z,100306.39
2019-05-29T11:16:58.453Z,100311.29
2019-05-29T11:17:59.896Z,100312.64
2019-05-29T11:19:01.270Z,100323.42
2019-05-29T11:20:05.992Z,100320.90
2019-05-29T11:21:08.013Z,100326.29
2019-05-29T11:22:25.200Z,100310.97
2019-05-29T11:23:12.807Z,100320.58
2019-05-29T11:24:14.199Z,100335.41
2019-05-29T11:25:22.531Z,100336.75
2019-05-29T11:26:20.241Z,100337.78
2019-05-29T11:27:25.679Z,100330.54
2019-05-29T11:28:25.114Z,100351.41
2019-05-29T11:29:26.511Z,100345.48
2019-05-29T11:30:28.042Z,100359.81
2019-05-29T11:31:29.432Z,100343.44
2019-05-29T11:32:30.825Z,100340.73
2019-05-29T11:33:32.229Z,100354.75
2019-05-29T11:34:33.613Z,100370.39
2019-05-29T11:35:36.164Z,100367.20
2019-05-29T11:36:37.545Z,100369.05
2019-05-29T11:37:38.942Z,100361.81
2019-05-29T11:38:40.327Z,100381.17
2019-05-29T11:39:41.733Z,100374.31
2019-05-29T11:40:43.765Z,100379.50
2019-05-29T11:41:45.552Z,100372.44
2019-05-29T11:42:46.962Z,100392.66
2019-05-29T11:43:48.879Z,100394.70
2019-05-29T11:44:50.871Z,100389.31
2019-05-29T11:45:53.144Z,100386.30
2019-05-29T11:46:55.994Z,100383.92
2019-05-29T11:47:59.604Z,100407.05
2019-05-29T11:49:00.983Z,100400.30
2019-05-29T11:50:18.637Z,100409.21
2019-05-29T11:51:11.503Z,100404.84
2019-05-29T11:52:24.309Z,100404.67
2019-05-29T11:53:16.286Z,100408.89
2019-05-29T11:54:17.673Z,100411.09
2019-05-29T11:55:19.272Z,100417.67
2019-05-29T11:56:20.664Z,100418.00